sensor_id;sensor_type;location;lat;lon;timestamp;P1;durP1;ratioP1;P2;durP2;ratioP2
6438;SDS011;3252;52.540;13.290;2023-09-19T08:48:54;9.05;;;2.65;;
6438;SDS011;3252;52.540;13.290;2023-09-19T10:13:49;11.45;;;3.22;;
6438;SDS011;3252;52.540;13.290;2023-09-19T10:15:54;8.10;;;2.45;;
6438;SDS011;3252;52.540;13.290;2023-09-19T10:17:59;13.73;;;3.08;;
6438;SDS011;3252;52.540;13.290;2023-09-19T10:20:03;12.88;;;2.85;;
6438;SDS011;3252;52.540;13.290;2023-09-19T10:22:10;14.77;;;3.85;;
6438;SDS011;3252;52.540;13.290;2023-09-19T10:24:15;15.13;;;3.60;;
6438;SDS011;3252;52.540;13.290;2023-09-19T10:26:18;18.20;;;3.17;;
6438;SDS011;3252;52.540;13.290;2023-09-19T10:28:21;16.92;;;3.40;;
6438;SDS011;3252;52.540;13.290;2023-09-19T10:30:25;13.45;;;3.13;;
6438;SDS011;3252;52.540;13.290;2023-09-19T10:32:28;14.80;;;3.30;;
6438;SDS011;3252;52.540;13.290;2023-09-19T10:34:33;11.32;;;2.83;;
6438;SDS011;3252;52.540;13.290;2023-09-19T10:36:37;7.20;;;2.78;;
6438;SDS011;3252;52.540;13.290;2023-09-19T10:38:42;9.35;;;3.40;;
6438;SDS011;3252;52.540;13.290;2023-09-19T10:40:53;8.02;;;3.22;;
6438;SDS011;3252;52.540;13.290;2023-09-19T10:46:17;11.18;;;3.10;;
6438;SDS011;3252;52.540;13.290;2023-09-19T10:48:20;12.90;;;3.30;;
6438;SDS011;3252;52.540;13.290;2023-09-19T10:50:26;10.43;;;2.80;;
6438;SDS011;3252;52.540;13.290;2023-09-19T10:52:32;11.95;;;3.03;;
6438;SDS011;3252;52.540;13.290;2023-09-19T10:54:41;10.50;;;2.90;;
6438;SDS011;3252;52.540;13.290;2023-09-19T10:56:51;10.90;;;2.97;;
6438;SDS011;3252;52.540;13.290;2023-09-19T10:59:08;17.88;;;3.33;;
6438;SDS011;3252;52.540;13.290;2023-09-19T11:01:13;11.27;;;3.05;;
6438;SDS011;3252;52.540;13.290;2023-09-19T11:03:20;7.93;;;3.20;;
6438;SDS011;3252;52.540;13.290;2023-09-19T11:05:30;26.90;;;3.67;;
6438;SDS011;3252;52.540;13.290;2023-09-19T11:07:42;9.02;;;3.17;;
6438;SDS011;3252;52.540;13.290;2023-09-19T11:09:59;8.80;;;3.28;;
6438;SDS011;3252;52.540;13.290;2023-09-19T11:12:04;7.88;;;3.10;;
6438;SDS011;3252;52.540;13.290;2023-09-19T11:16:31;14.68;;;3.08;;
6438;SDS011;3252;52.540;13.290;2023-09-19T11:18:54;9.95;;;2.95;;
6438;SDS011;3252;52.540;13.290;2023-09-19T11:23:34;11.75;;;3.05;;
6438;SDS011;3252;52.540;13.290;2023-09-19T11:25:43;10.23;;;2.75;;
6438;SDS011;3252;52.540;13.290;2023-09-19T11:30:28;15.50;;;3.33;;
6438;SDS011;3252;52.540;13.290;2023-09-19T11:35:10;9.73;;;2.88;;
6438;SDS011;3252;52.540;13.290;2023-09-19T11:40:11;8.15;;;2.90;;
6438;SDS011;3252;52.540;13.290;2023-09-19T11:44:48;6.63;;;2.22;;
6438;SDS011;3252;52.540;13.290;2023-09-19T11:46:53;7.80;;;2.63;;
6438;SDS011;3252;52.540;13.290;2023-09-19T11:49:45;9.63;;;2.75;;
6438;SDS011;3252;52.540;13.290;2023-09-19T11:51:51;9.18;;;2.78;;
6438;SDS011;3252;52.540;13.290;2023-09-19T11:56:32;9.30;;;2.88;;
6438;SDS011;3252;52.540;13.290;2023-09-19T11:58:41;9.70;;;2.42;;
6438;SDS011;3252;52.540;13.290;2023-09-19T12:00:43;7.70;;;2.53;;
6438;SDS011;3252;52.540;13.290;2023-09-19T12:02:47;8.85;;;2.50;;
6438;SDS011;3252;52.540;13.290;2023-09-19T12:06:12;10.07;;;3.10;;
6438;SDS011;3252;52.540;13.290;2023-09-19T12:08:20;12.07;;;2.90;;
6438;SDS011;3252;52.540;13.290;2023-09-19T12:10:44;15.05;;;2.80;;
6438;SDS011;3252;52.540;13.290;2023-09-19T12:12:53;9.60;;;2.40;;
6438;SDS011;3252;52.540;13.290;2023-09-19T12:14:57;10.93;;;2.83;;
6438;SDS011;3252;52.540;13.290;2023-09-19T12:17:03;12.75;;;2.67;;
6438;SDS011;3252;52.540;13.290;2023-09-19T12:19:17;11.50;;;2.75;;
6438;SDS011;3252;52.540;13.290;2023-09-19T12:21:25;6.22;;;2.80;;
6438;SDS011;3252;52.540;13.290;2023-09-19T12:23:36;12.27;;;2.50;;
6438;SDS011;3252;52.540;13.290;2023-09-19T12:25:46;9.25;;;2.58;;
6438;SDS011;3252;52.540;13.290;2023-09-19T12:27:56;10.13;;;2.20;;
6438;SDS011;3252;52.540;13.290;2023-09-19T12:30:03;10.60;;;2.63;;
6438;SDS011;3252;52.540;13.290;2023-09-19T12:32:09;13.32;;;2.50;;
6438;SDS011;3252;52.540;13.290;2023-09-19T12:34:13;6.88;;;2.50;;
6438;SDS011;3252;52.540;13.290;2023-09-19T12:36:20;7.78;;;2.17;;
6438;SDS011;3252;52.540;13.290;2023-09-19T12:38:31;9.57;;;2.00;;
6438;SDS011;3252;52.540;13.290;2023-09-19T12:40:45;12.10;;;2.28;;
6438;SDS011;3252;52.540;13.290;2023-09-19T12:42:52;13.90;;;2.50;;
6438;SDS011;3252;52.540;13.290;2023-09-19T12:44:57;8.95;;;2.00;;
6438;SDS011;3252;52.540;13.290;2023-09-19T12:47:07;12.32;;;2.40;;
6438;SDS011;3252;52.540;13.290;2023-09-19T12:49:15;5.03;;;2.17;;
6438;SDS011;3252;52.540;13.290;2023-09-19T12:51:19;8.20;;;2.30;;
6438;SDS011;3252;52.540;13.290;2023-09-19T12:53:25;9.90;;;2.30;;
6438;SDS011;3252;52.540;13.290;2023-09-19T12:55:33;6.15;;;2.45;;
6438;SDS011;3252;52.540;13.290;2023-09-19T12:57:40;8.85;;;2.50;;
6438;SDS011;3252;52.540;13.290;2023-09-19T12:59:44;4.05;;;1.92;;
6438;SDS011;3252;52.540;13.290;2023-09-19T13:01:48;9.73;;;2.17;;
6438;SDS011;3252;52.540;13.290;2023-09-19T13:04:17;8.48;;;2.33;;
6438;SDS011;3252;52.540;13.290;2023-09-19T13:06:36;8.50;;;2.22;;
6438;SDS011;3252;52.540;13.290;2023-09-19T13:08:41;7.35;;;2.35;;
6438;SDS011;3252;52.540;13.290;2023-09-19T13:11:03;9.30;;;2.20;;
6438;SDS011;3252;52.540;13.290;2023-09-19T13:13:23;8.05;;;2.13;;
6438;SDS011;3252;52.540;13.290;2023-09-19T13:15:30;4.85;;;1.80;;
6438;SDS011;3252;52.540;13.290;2023-09-19T13:18:03;7.20;;;2.22;;
6438;SDS011;3252;52.540;13.290;2023-09-19T13:20:26;4.95;;;2.50;;
6438;SDS011;3252;52.540;13.290;2023-09-19T13:22:42;8.85;;;2.20;;
6438;SDS011;3252;52.540;13.290;2023-09-19T13:25:15;11.27;;;2.20;;
6438;SDS011;3252;52.540;13.290;2023-09-19T13:27:23;7.30;;;2.08;;
6438;SDS011;3252;52.540;13.290;2023-09-19T13:29:30;9.20;;;2.00;;
6438;SDS011;3252;52.540;13.290;2023-09-19T13:31:32;9.45;;;2.13;;
6438;SDS011;3252;52.540;13.290;2023-09-19T13:33:35;11.60;;;2.03;;
6438;SDS011;3252;52.540;13.290;2023-09-19T13:35:37;8.43;;;2.60;;
6438;SDS011;3252;52.540;13.290;2023-09-19T13:37:40;10.17;;;2.00;;
6438;SDS011;3252;52.540;13.290;2023-09-19T13:39:46;10.95;;;2.72;;
6438;SDS011;3252;52.540;13.290;2023-09-19T13:41:48;12.30;;;2.47;;
6438;SDS011;3252;52.540;13.290;2023-09-19T13:43:55;12.00;;;2.58;;
6438;SDS011;3252;52.540;13.290;2023-09-19T13:45:59;12.30;;;2.38;;
6438;SDS011;3252;52.540;13.290;2023-09-19T13:48:12;7.05;;;2.30;;
6438;SDS011;3252;52.540;13.290;2023-09-19T13:50:16;4.37;;;1.90;;
6438;SDS011;3252;52.540;13.290;2023-09-19T13:52:24;6.73;;;2.00;;
6438;SDS011;3252;52.540;13.290;2023-09-19T13:54:29;12.20;;;2.58;;
6438;SDS011;3252;52.540;13.290;2023-09-19T13:56:31;7.03;;;2.60;;
6438;SDS011;3252;52.540;13.290;2023-09-19T13:58:34;4.68;;;1.83;;
6438;SDS011;3252;52.540;13.290;2023-09-19T14:00:52;5.60;;;1.90;;
6438;SDS011;3252;52.540;13.290;2023-09-19T14:03:21;6.23;;;1.97;;
6438;SDS011;3252;52.540;13.290;2023-09-19T14:05:38;11.03;;;2.37;;
6438;SDS011;3252;52.540;13.290;2023-09-19T14:07:47;6.27;;;2.00;;
6438;SDS011;3252;52.540;13.290;2023-09-19T14:09:50;6.60;;;2.03;;
6438;SDS011;3252;52.540;13.290;2023-09-19T14:11:55;12.48;;;2.58;;
6438;SDS011;3252;52.540;13.290;2023-09-19T14:14:01;7.77;;;2.60;;
6438;SDS011;3252;52.540;13.290;2023-09-19T14:16:05;5.78;;;2.20;;
6438;SDS011;3252;52.540;13.290;2023-09-19T14:18:08;7.63;;;2.40;;
6438;SDS011;3252;52.540;13.290;2023-09-19T14:20:12;8.70;;;2.58;;
6438;SDS011;3252;52.540;13.290;2023-09-19T14:22:15;7.03;;;2.23;;
6438;SDS011;3252;52.540;13.290;2023-09-19T14:24:18;6.10;;;2.00;;
6438;SDS011;3252;52.540;13.290;2023-09-19T14:26:21;9.30;;;2.00;;
6438;SDS011;3252;52.540;13.290;2023-09-19T14:28:24;7.63;;;2.13;;
6438;SDS011;3252;52.540;13.290;2023-09-19T14:30:26;8.37;;;2.10;;
6438;SDS011;3252;52.540;13.290;2023-09-19T14:32:29;8.87;;;2.40;;
6438;SDS011;3252;52.540;13.290;2023-09-19T14:34:31;6.77;;;2.10;;
6438;SDS011;3252;52.540;13.290;2023-09-19T14:36:34;6.00;;;2.17;;
6438;SDS011;3252;52.540;13.290;2023-09-19T14:38:36;8.57;;;2.10;;
6438;SDS011;3252;52.540;13.290;2023-09-19T14:40:39;5.07;;;2.17;;
6438;SDS011;3252;52.540;13.290;2023-09-19T14:42:43;7.07;;;1.97;;
6438;SDS011;3252;52.540;13.290;2023-09-19T14:44:45;5.75;;;2.30;;
6438;SDS011;3252;52.540;13.290;2023-09-19T14:46:49;6.70;;;2.07;;
6438;SDS011;3252;52.540;13.290;2023-09-19T14:48:53;6.93;;;2.13;;
6438;SDS011;3252;52.540;13.290;2023-09-19T14:51:01;5.50;;;2.15;;
6438;SDS011;3252;52.540;13.290;2023-09-19T14:53:08;5.95;;;1.90;;
6438;SDS011;3252;52.540;13.290;2023-09-19T14:55:20;9.25;;;2.15;;
6438;SDS011;3252;52.540;13.290;2023-09-19T14:57:34;10.23;;;2.70;;
6438;SDS011;3252;52.540;13.290;2023-09-19T15:04:53;9.38;;;2.45;;
6438;SDS011;3252;52.540;13.290;2023-09-19T15:06:55;6.63;;;2.37;;
6438;SDS011;3252;52.540;13.290;2023-09-19T15:11:24;12.50;;;2.60;;
6438;SDS011;3252;52.540;13.290;2023-09-19T15:13:33;5.23;;;2.10;;
6438;SDS011;3252;52.540;13.290;2023-09-19T15:15:47;7.88;;;2.20;;
6438;SDS011;3252;52.540;13.290;2023-09-19T15:17:50;8.60;;;2.30;;
6438;SDS011;3252;52.540;13.290;2023-09-19T15:20:10;8.82;;;2.70;;
6438;SDS011;3252;52.540;13.290;2023-09-19T15:27:17;8.00;;;2.90;;
6438;SDS011;3252;52.540;13.290;2023-09-19T15:29:38;7.40;;;2.60;;
6438;SDS011;3252;52.540;13.290;2023-09-19T15:31:44;7.07;;;2.60;;
6438;SDS011;3252;52.540;13.290;2023-09-19T16:37:39;9.30;;;3.10;;
6438;SDS011;3252;52.540;13.290;2023-09-19T16:47:04;7.80;;;3.03;;
6438;SDS011;3252;52.540;13.290;2023-09-19T16:49:07;10.17;;;3.80;;
6438;SDS011;3252;52.540;13.290;2023-09-19T16:51:10;7.90;;;3.37;;
6438;SDS011;3252;52.540;13.290;2023-09-19T16:53:15;9.10;;;3.20;;
6438;SDS011;3252;52.540;13.290;2023-09-19T16:55:19;14.80;;;3.17;;
6438;SDS011;3252;52.540;13.290;2023-09-19T16:57:22;10.93;;;3.50;;
6438;SDS011;3252;52.540;13.290;2023-09-19T16:59:25;7.43;;;3.00;;
6438;SDS011;3252;52.540;13.290;2023-09-19T17:01:28;9.90;;;3.07;;
6438;SDS011;3252;52.540;13.290;2023-09-19T17:04:00;10.80;;;5.50;;
6438;SDS011;3252;52.540;13.290;2023-09-19T17:06:04;10.00;;;4.60;;
6438;SDS011;3252;52.540;13.290;2023-09-19T17:08:06;8.70;;;3.30;;
6438;SDS011;3252;52.540;13.290;2023-09-19T17:10:11;8.63;;;3.30;;
6438;SDS011;3252;52.540;13.290;2023-09-19T17:12:15;18.83;;;9.20;;
6438;SDS011;3252;52.540;13.290;2023-09-19T17:14:17;11.30;;;5.30;;
6438;SDS011;3252;52.540;13.290;2023-09-19T17:16:19;22.63;;;6.50;;
6438;SDS011;3252;52.540;13.290;2023-09-19T17:18:21;9.23;;;3.40;;
6438;SDS011;3252;52.540;13.290;2023-09-19T17:20:23;10.70;;;2.97;;
6438;SDS011;3252;52.540;13.290;2023-09-19T17:22:26;13.17;;;2.97;;
6438;SDS011;3252;52.540;13.290;2023-09-19T17:24:28;6.73;;;3.37;;
6438;SDS011;3252;52.540;13.290;2023-09-19T17:26:33;7.27;;;3.23;;
6438;SDS011;3252;52.540;13.290;2023-09-19T17:28:36;7.67;;;3.87;;
6438;SDS011;3252;52.540;13.290;2023-09-19T17:30:38;11.00;;;3.17;;
6438;SDS011;3252;52.540;13.290;2023-09-19T17:32:45;6.33;;;2.67;;
6438;SDS011;3252;52.540;13.290;2023-09-19T17:34:48;8.07;;;2.50;;
6438;SDS011;3252;52.540;13.290;2023-09-19T17:36:50;7.97;;;2.80;;
6438;SDS011;3252;52.540;13.290;2023-09-19T17:38:53;8.97;;;2.70;;
6438;SDS011;3252;52.540;13.290;2023-09-19T17:41:00;14.77;;;7.13;;
6438;SDS011;3252;52.540;13.290;2023-09-19T17:43:05;13.97;;;8.00;;
6438;SDS011;3252;52.540;13.290;2023-09-19T17:45:08;11.77;;;5.93;;
6438;SDS011;3252;52.540;13.290;2023-09-19T17:47:11;10.33;;;3.97;;
6438;SDS011;3252;52.540;13.290;2023-09-19T17:49:19;14.47;;;5.07;;
